createdAt,value
2018-12-01T00:00:26.536Z,6.40
2018-12-01T00:10:31.548Z,6.07
2018-12-01T00:20:38.201Z,6.10
2018-12-01T00:30:42.823Z,5.37
2018-12-01T00:40:47.780Z,5.57
2018-12-01T00:50:53.466Z,5.20
2018-12-01T01:00:58.120Z,5.63
2018-12-01T01:11:02.887Z,5.00
2018-12-01T01:21:08.470Z,5.17
2018-12-01T01:31:13.189Z,4.90
2018-12-01T01:41:18.286Z,5.13
2018-12-01T01:51:23.039Z,5.30
2018-12-01T02:01:27.723Z,5.30
2018-12-01T02:11:32.482Z,4.90
2018-12-01T02:21:37.190Z,5.10
2018-12-01T02:31:42.860Z,4.67
2018-12-01T02:41:47.551Z,4.30
2018-12-01T02:51:52.329Z,4.20
2018-12-01T03:01:57.123Z,4.30
2018-12-01T03:12:01.950Z,3.90
2018-12-01T03:22:06.947Z,3.80
2018-12-01T03:32:11.520Z,3.90
2018-12-01T03:42:16.240Z,3.47
2018-12-01T03:52:20.870Z,3.60
2018-12-01T04:02:25.561Z,3.40
2018-12-01T04:12:30.104Z,3.40
2018-12-01T04:22:34.875Z,3.50
2018-12-01T04:32:39.844Z,3.30
2018-12-01T04:42:45.616Z,3.00
2018-12-01T04:52:50.679Z,3.00
2018-12-01T05:02:55.458Z,2.83
2018-12-01T05:13:00.010Z,2.97
2018-12-01T05:23:04.801Z,2.67
2018-12-01T05:33:09.605Z,2.83
2018-12-01T05:43:14.169Z,3.07
2018-12-01T05:53:18.795Z,2.70
2018-12-01T06:03:23.539Z,2.70
2018-12-01T06:13:28.086Z,2.77
2018-12-01T06:23:32.788Z,2.57
2018-12-01T06:33:37.371Z,2.50
2018-12-01T06:43:42.573Z,2.37
2018-12-01T06:53:47.305Z,2.30
2018-12-01T07:03:52.019Z,2.30
2018-12-01T07:13:56.729Z,2.30
2018-12-01T07:24:01.367Z,2.30
2018-12-01T07:34:06.822Z,2.40
2018-12-01T07:44:11.458Z,2.30
2018-12-01T07:54:17.166Z,1.90
2018-12-01T08:04:21.957Z,2.30
2018-12-01T08:14:26.662Z,2.23
2018-12-01T08:24:31.283Z,3.23
2018-12-01T08:34:36.969Z,3.20
2018-12-01T08:44:41.590Z,3.10
2018-12-01T08:54:47.484Z,2.77
2018-12-01T09:04:52.224Z,3.20
2018-12-01T09:14:56.794Z,2.10
2018-12-01T09:25:01.492Z,2.40
2018-12-01T09:35:06.053Z,2.03
2018-12-01T09:45:14.357Z,1.70
2018-12-01T09:55:22.187Z,1.97
2018-12-01T10:05:26.977Z,3.67
2018-12-01T10:15:34.225Z,4.23
2018-12-01T10:25:39.978Z,4.10
2018-12-01T10:35:44.666Z,5.00
2018-12-01T10:45:49.365Z,5.17
2018-12-01T10:55:55.037Z,4.50
2018-12-01T11:06:01.099Z,4.23
2018-12-01T11:16:07.094Z,4.03
2018-12-01T11:26:12.174Z,3.90
2018-12-01T11:36:16.961Z,4.57
2018-12-01T11:46:21.617Z,4.10
2018-12-01T11:56:26.389Z,3.73
2018-12-01T12:06:31.065Z,3.60
2018-12-01T12:16:37.171Z,3.13
2018-12-01T12:26:41.785Z,3.50
2018-12-01T12:36:46.889Z,3.20
2018-12-01T12:46:51.597Z,3.00
2018-12-01T12:56:56.254Z,2.87
2018-12-01T13:07:00.854Z,2.87
2018-12-01T13:17:06.303Z,2.60
2018-12-01T13:27:11.994Z,2.70
2018-12-01T13:37:18.267Z,2.50
2018-12-01T13:47:21.555Z,2.17
2018-12-01T13:57:26.187Z,2.40
2018-12-01T14:07:30.915Z,2.30
2018-12-01T14:17:35.541Z,2.50
2018-12-01T14:27:41.610Z,2.20
2018-12-01T14:37:49.578Z,2.30
2018-12-01T14:47:54.193Z,2.20
2018-12-01T14:57:58.866Z,2.27
2018-12-01T15:08:03.487Z,2.30
2018-12-01T15:18:08.154Z,2.43
2018-12-01T15:28:13.541Z,2.50
2018-12-01T15:38:18.427Z,2.30
2018-12-01T15:48:23.062Z,2.40
2018-12-01T15:58:27.640Z,4.03
2018-12-01T16:08:32.366Z,4.87
2018-12-01T16:18:37.478Z,5.27
2018-12-01T16:28:42.089Z,5.30
2018-12-01T16:38:46.812Z,5.13
2018-12-01T16:48:51.498Z,4.37
2018-12-01T16:58:56.379Z,4.80
2018-12-01T17:09:01.017Z,4.30
2018-12-01T17:19:06.144Z,4.37
2018-12-01T17:29:11.815Z,4.17
2018-12-01T17:39:16.654Z,4.00
2018-12-01T17:49:22.324Z,3.60
2018-12-01T17:59:27.412Z,3.50
2018-12-01T18:09:32.155Z,3.17
2018-12-01T18:19:37.532Z,3.47
2018-12-01T18:29:42.367Z,3.20
2018-12-01T18:39:47.017Z,3.00
2018-12-01T18:49:51.550Z,3.53
2018-12-01T18:59:56.291Z,3.23
2018-12-01T19:10:00.959Z,3.07
2018-12-01T19:20:10.487Z,2.90
2018-12-01T19:30:17.824Z,3.13
2018-12-01T19:40:28.616Z,2.50
2018-12-01T19:50:33.192Z,2.63
2018-12-01T20:00:37.814Z,2.80
2018-12-01T20:10:51.478Z,2.30
2018-12-01T20:20:56.655Z,2.80
2018-12-01T20:31:01.279Z,2.50
2018-12-01T20:41:06.311Z,2.23
2018-12-01T20:51:12.033Z,2.50
2018-12-01T21:01:16.775Z,2.53
2018-12-01T21:11:21.410Z,2.40
2018-12-01T21:21:26.476Z,2.40
2018-12-01T21:31:31.187Z,2.80
2018-12-01T21:41:35.865Z,2.23
2018-12-01T21:51:40.769Z,2.50
2018-12-01T22:01:46.103Z,2.20
2018-12-01T22:11:50.750Z,2.40
2018-12-01T22:21:55.491Z,2.20
2018-12-01T22:32:00.352Z,2.03
2018-12-01T22:42:05.072Z,2.30
2018-12-01T22:52:10.042Z,1.97
2018-12-01T23:02:14.791Z,1.80
2018-12-01T23:12:20.419Z,2.17
2018-12-01T23:22:25.042Z,2.30
2018-12-01T23:32:29.804Z,2.03
2018-12-01T23:42:34.455Z,1.90
2018-12-01T23:52:39.180Z,2.10
